sensor_id;sensor_type;location;lat;lon;timestamp;pressure;altitude;pressure_sealevel;temperature;humidity
64211;BME280;50528;48.514;14.394;2023-04-27T00:00:28;93920.27;;;1.92;67.04
64211;BME280;50528;48.514;14.394;2023-04-27T00:01:19;93919.46;;;1.88;67.02
64211;BME280;50528;48.514;14.394;2023-04-27T00:01:52;93919.01;;;1.86;67.08
64211;BME280;50528;48.514;14.394;2023-04-27T00:02:25;93919.31;;;1.85;67.11
64211;BME280;50528;48.514;14.394;2023-04-27T00:03:00;93919.23;;;1.84;67.19
64211;BME280;50528;48.514;14.394;2023-04-27T00:03:39;93922.13;;;1.83;67.17
64211;BME280;50528;48.514;14.394;2023-04-27T00:04:14;93921.10;;;1.81;67.28
64211;BME280;50528;48.514;14.394;2023-04-27T00:04:49;93916.34;;;1.81;67.34
64211;BME280;50528;48.514;14.394;2023-04-27T00:05:23;93921.36;;;1.81;67.42
64211;BME280;50528;48.514;14.394;2023-04-27T00:05:56;93914.39;;;1.80;67.57
64211;BME280;50528;48.514;14.394;2023-04-27T00:06:30;93917.50;;;1.80;67.60
64211;BME280;50528;48.514;14.394;2023-04-27T00:07:04;93919.28;;;1.79;67.68
64211;BME280;50528;48.514;14.394;2023-04-27T00:07:38;93917.89;;;1.80;67.74
64211;BME280;50528;48.514;14.394;2023-04-27T00:08:11;93915.41;;;1.79;67.69
64211;BME280;50528;48.514;14.394;2023-04-27T00:08:45;93918.23;;;1.78;67.73
64211;BME280;50528;48.514;14.394;2023-04-27T00:09:18;93912.99;;;1.76;67.67
64211;BME280;50528;48.514;14.394;2023-04-27T00:09:51;93909.83;;;1.74;67.73
64211;BME280;50528;48.514;14.394;2023-04-27T00:10:25;93913.96;;;1.78;67.81
64211;BME280;50528;48.514;14.394;2023-04-27T00:10:59;93914.53;;;1.77;67.76
64211;BME280;50528;48.514;14.394;2023-04-27T00:11:33;93912.50;;;1.77;67.76
64211;BME280;50528;48.514;14.394;2023-04-27T00:12:10;93912.58;;;1.77;67.78
64211;BME280;50528;48.514;14.394;2023-04-27T00:12:46;93914.09;;;1.76;67.80
64211;BME280;50528;48.514;14.394;2023-04-27T00:13:19;93911.41;;;1.75;67.83
64211;BME280;50528;48.514;14.394;2023-04-27T00:13:53;93909.77;;;1.74;67.90
64211;BME280;50528;48.514;14.394;2023-04-27T00:14:26;93910.48;;;1.74;67.99
64211;BME280;50528;48.514;14.394;2023-04-27T00:15:00;93914.91;;;1.74;68.00
64211;BME280;50528;48.514;14.394;2023-04-27T00:15:34;93910.33;;;1.74;68.05
64211;BME280;50528;48.514;14.394;2023-04-27T00:16:08;93909.36;;;1.73;68.06
64211;BME280;50528;48.514;14.394;2023-04-27T00:16:41;93911.91;;;1.74;68.14
64211;BME280;50528;48.514;14.394;2023-04-27T00:17:15;93910.84;;;1.74;68.18
64211;BME280;50528;48.514;14.394;2023-04-27T00:17:48;93912.79;;;1.74;68.16
64211;BME280;50528;48.514;14.394;2023-04-27T00:18:22;93908.48;;;1.73;68.29
64211;BME280;50528;48.514;14.394;2023-04-27T00:18:55;93906.25;;;1.73;68.22
64211;BME280;50528;48.514;14.394;2023-04-27T00:19:29;93908.58;;;1.74;68.23
64211;BME280;50528;48.514;14.394;2023-04-27T00:20:03;93909.89;;;1.75;68.48
64211;BME280;50528;48.514;14.394;2023-04-27T00:20:40;93912.16;;;1.74;68.45
64211;BME280;50528;48.514;14.394;2023-04-27T00:21:13;93909.97;;;1.74;68.43
64211;BME280;50528;48.514;14.394;2023-04-27T00:21:46;93911.91;;;1.74;68.51
64211;BME280;50528;48.514;14.394;2023-04-27T00:22:20;93908.73;;;1.74;68.52
64211;BME280;50528;48.514;14.394;2023-04-27T00:22:53;93904.59;;;1.71;68.58
64211;BME280;50528;48.514;14.394;2023-04-27T00:23:26;93905.96;;;1.71;68.59
64211;BME280;50528;48.514;14.394;2023-04-27T00:24:00;93906.17;;;1.74;68.69
64211;BME280;50528;48.514;14.394;2023-04-27T00:24:33;93906.59;;;1.71;68.65
64211;BME280;50528;48.514;14.394;2023-04-27T00:25:09;93908.02;;;1.75;68.72
64211;BME280;50528;48.514;14.394;2023-04-27T00:25:43;93904.82;;;1.74;68.79
64211;BME280;50528;48.514;14.394;2023-04-27T00:26:17;93905.14;;;1.74;68.76
64211;BME280;50528;48.514;14.394;2023-04-27T00:26:51;93904.55;;;1.74;68.83
64211;BME280;50528;48.514;14.394;2023-04-27T00:27:25;93904.64;;;1.75;68.79
64211;BME280;50528;48.514;14.394;2023-04-27T00:27:58;93889.61;;;1.67;68.82
64211;BME280;50528;48.514;14.394;2023-04-27T00:28:32;93905.96;;;1.76;68.91
64211;BME280;50528;48.514;14.394;2023-04-27T00:29:06;93904.81;;;1.77;68.91
64211;BME280;50528;48.514;14.394;2023-04-27T00:29:39;93902.41;;;1.76;68.89
64211;BME280;50528;48.514;14.394;2023-04-27T00:30:15;93900.98;;;1.77;69.03
64211;BME280;50528;48.514;14.394;2023-04-27T00:30:49;93900.05;;;1.77;68.97
64211;BME280;50528;48.514;14.394;2023-04-27T00:31:26;93897.51;;;1.77;68.96
64211;BME280;50528;48.514;14.394;2023-04-27T00:32:01;93895.02;;;1.75;68.95
64211;BME280;50528;48.514;14.394;2023-04-27T00:32:34;93895.46;;;1.75;68.97
64211;BME280;50528;48.514;14.394;2023-04-27T00:33:08;93899.21;;;1.77;68.98
64211;BME280;50528;48.514;14.394;2023-04-27T00:33:41;93897.98;;;1.77;68.96
64211;BME280;50528;48.514;14.394;2023-04-27T00:34:15;93900.01;;;1.77;68.98
64211;BME280;50528;48.514;14.394;2023-04-27T00:34:48;93900.37;;;1.79;69.04
64211;BME280;50528;48.514;14.394;2023-04-27T00:35:21;93899.86;;;1.79;69.05
64211;BME280;50528;48.514;14.394;2023-04-27T00:35:59;93900.05;;;1.78;69.00
64211;BME280;50528;48.514;14.394;2023-04-27T00:36:33;93899.10;;;1.78;69.13
64211;BME280;50528;48.514;14.394;2023-04-27T00:37:07;93898.34;;;1.77;69.10
64211;BME280;50528;48.514;14.394;2023-04-27T00:37:40;93897.02;;;1.78;69.13
64211;BME280;50528;48.514;14.394;2023-04-27T00:38:14;93899.70;;;1.79;69.05
64211;BME280;50528;48.514;14.394;2023-04-27T00:38:48;93897.15;;;1.78;69.13
64211;BME280;50528;48.514;14.394;2023-04-27T00:39:21;93900.08;;;1.80;69.08
64211;BME280;50528;48.514;14.394;2023-04-27T00:39:55;93900.29;;;1.81;69.18
64211;BME280;50528;48.514;14.394;2023-04-27T00:40:28;93903.25;;;1.82;69.17
64211;BME280;50528;48.514;14.394;2023-04-27T00:41:03;93901.21;;;1.82;69.24
64211;BME280;50528;48.514;14.394;2023-04-27T00:41:38;93900.73;;;1.81;69.12
64211;BME280;50528;48.514;14.394;2023-04-27T00:42:12;93900.95;;;1.81;69.11
64211;BME280;50528;48.514;14.394;2023-04-27T00:42:49;93901.84;;;1.81;69.14
64211;BME280;50528;48.514;14.394;2023-04-27T00:43:22;93899.41;;;1.81;69.16
64211;BME280;50528;48.514;14.394;2023-04-27T00:43:55;93900.05;;;1.81;69.13
64211;BME280;50528;48.514;14.394;2023-04-27T00:44:29;93901.57;;;1.82;69.26
64211;BME280;50528;48.514;14.394;2023-04-27T00:45:03;93900.01;;;1.82;69.16
64211;BME280;50528;48.514;14.394;2023-04-27T00:45:41;93899.46;;;1.82;69.19
64211;BME280;50528;48.514;14.394;2023-04-27T00:46:18;93899.14;;;1.82;69.16
64211;BME280;50528;48.514;14.394;2023-04-27T00:46:52;93903.84;;;1.81;69.14
64211;BME280;50528;48.514;14.394;2023-04-27T00:47:27;93898.22;;;1.82;69.14
64211;BME280;50528;48.514;14.394;2023-04-27T00:48:01;93900.09;;;1.83;69.22
64211;BME280;50528;48.514;14.394;2023-04-27T00:48:34;93898.40;;;1.83;69.22
64211;BME280;50528;48.514;14.394;2023-04-27T00:49:08;93899.36;;;1.83;69.19
64211;BME280;50528;48.514;14.394;2023-04-27T00:49:41;93897.13;;;1.84;69.16
64211;BME280;50528;48.514;14.394;2023-04-27T00:50:15;93898.13;;;1.83;69.20
64211;BME280;50528;48.514;14.394;2023-04-27T00:50:51;93896.90;;;1.84;69.18
64211;BME280;50528;48.514;14.394;2023-04-27T00:51:25;93898.94;;;1.85;69.22
64211;BME280;50528;48.514;14.394;2023-04-27T00:52:00;93898.64;;;1.84;69.17
64211;BME280;50528;48.514;14.394;2023-04-27T00:52:35;93898.33;;;1.84;69.16
64211;BME280;50528;48.514;14.394;2023-04-27T00:53:08;93898.65;;;1.84;69.16
64211;BME280;50528;48.514;14.394;2023-04-27T00:53:42;93898.69;;;1.84;69.17
64211;BME280;50528;48.514;14.394;2023-04-27T00:54:18;93899.69;;;1.84;69.19
64211;BME280;50528;48.514;14.394;2023-04-27T00:54:52;93898.77;;;1.84;69.19
64211;BME280;50528;48.514;14.394;2023-04-27T00:55:25;93899.25;;;1.85;69.26
64211;BME280;50528;48.514;14.394;2023-04-27T00:56:00;93895.59;;;1.85;69.24
64211;BME280;50528;48.514;14.394;2023-04-27T00:56:34;93898.79;;;1.86;69.26
64211;BME280;50528;48.514;14.394;2023-04-27T00:57:08;93901.98;;;1.86;69.24
64211;BME280;50528;48.514;14.394;2023-04-27T00:57:42;93899.91;;;1.86;69.33
64211;BME280;50528;48.514;14.394;2023-04-27T00:58:15;93899.40;;;1.87;69.20
64211;BME280;50528;48.514;14.394;2023-04-27T00:58:49;93900.36;;;1.87;69.32
64211;BME280;50528;48.514;14.394;2023-04-27T00:59:23;93899.01;;;1.88;69.29
64211;BME280;50528;48.514;14.394;2023-04-27T00:59:59;93899.60;;;1.89;69.28
64211;BME280;50528;48.514;14.394;2023-04-27T01:00:35;93896.98;;;1.86;69.34
64211;BME280;50528;48.514;14.394;2023-04-27T01:01:09;93891.92;;;1.84;69.37
64211;BME280;50528;48.514;14.394;2023-04-27T01:01:43;93900.07;;;1.89;69.31
64211;BME280;50528;48.514;14.394;2023-04-27T01:02:17;93899.13;;;1.89;69.29
64211;BME280;50528;48.514;14.394;2023-04-27T01:02:51;93897.61;;;1.88;69.32
64211;BME280;50528;48.514;14.394;2023-04-27T01:03:26;93896.23;;;1.87;69.35
64211;BME280;50528;48.514;14.394;2023-04-27T01:04:00;93900.54;;;1.86;69.34
64211;BME280;50528;48.514;14.394;2023-04-27T01:04:34;93897.05;;;1.84;69.43
64211;BME280;50528;48.514;14.394;2023-04-27T01:05:09;93897.80;;;1.84;69.44
64211;BME280;50528;48.514;14.394;2023-04-27T01:05:43;93899.44;;;1.83;69.42
64211;BME280;50528;48.514;14.394;2023-04-27T01:06:18;93893.83;;;1.83;69.37
64211;BME280;50528;48.514;14.394;2023-04-27T01:06:52;93897.02;;;1.82;69.45
64211;BME280;50528;48.514;14.394;2023-04-27T01:07:26;93898.21;;;1.83;69.51
64211;BME280;50528;48.514;14.394;2023-04-27T01:07:59;93898.53;;;1.84;69.62
64211;BME280;50528;48.514;14.394;2023-04-27T01:08:33;93884.58;;;1.75;69.46
64211;BME280;50528;48.514;14.394;2023-04-27T01:09:07;93897.90;;;1.85;69.53
64211;BME280;50528;48.514;14.394;2023-04-27T01:09:41;93896.62;;;1.85;69.63
64211;BME280;50528;48.514;14.394;2023-04-27T01:10:14;93897.39;;;1.86;69.63
64211;BME280;50528;48.514;14.394;2023-04-27T01:10:48;93896.46;;;1.85;69.61
64211;BME280;50528;48.514;14.394;2023-04-27T01:11:22;93888.59;;;1.80;69.52
64211;BME280;50528;48.514;14.394;2023-04-27T01:11:56;93895.48;;;1.86;69.54
64211;BME280;50528;48.514;14.394;2023-04-27T01:12:30;93899.04;;;1.87;69.57
64211;BME280;50528;48.514;14.394;2023-04-27T01:13:03;93896.09;;;1.87;69.53
64211;BME280;50528;48.514;14.394;2023-04-27T01:13:46;93897.05;;;1.87;69.62
64211;BME280;50528;48.514;14.394;2023-04-27T01:14:21;93893.94;;;1.87;69.58
64211;BME280;50528;48.514;14.394;2023-04-27T01:14:55;93895.46;;;1.89;69.67
64211;BME280;50528;48.514;14.394;2023-04-27T01:15:29;93893.70;;;1.88;69.71
64211;BME280;50528;48.514;14.394;2023-04-27T01:16:02;93897.40;;;1.90;69.68
64211;BME280;50528;48.514;14.394;2023-04-27T01:16:36;93896.41;;;1.91;69.66
64211;BME280;50528;48.514;14.394;2023-04-27T01:17:10;93897.70;;;1.92;69.68
64211;BME280;50528;48.514;14.394;2023-04-27T01:17:43;93893.67;;;1.92;69.72
64211;BME280;50528;48.514;14.394;2023-04-27T01:18:17;93894.92;;;1.93;69.71
64211;BME280;50528;48.514;14.394;2023-04-27T01:18:50;93898.23;;;1.94;69.79
64211;BME280;50528;48.514;14.394;2023-04-27T01:19:25;93886.17;;;1.86;69.75
64211;BME280;50528;48.514;14.394;2023-04-27T01:19:59;93897.83;;;1.95;69.76
64211;BME280;50528;48.514;14.394;2023-04-27T01:20:34;93900.66;;;1.95;69.78
64211;BME280;50528;48.514;14.394;2023-04-27T01:21:18;93896.44;;;1.96;69.85
64211;BME280;50528;48.514;14.394;2023-04-27T01:21:55;93895.08;;;1.96;69.76
64211;BME280;50528;48.514;14.394;2023-04-27T01:22:33;93896.45;;;1.93;69.75
64211;BME280;50528;48.514;14.394;2023-04-27T01:23:06;93899.77;;;1.95;69.90
64211;BME280;50528;48.514;14.394;2023-04-27T01:23:40;93901.30;;;1.96;69.90
64211;BME280;50528;48.514;14.394;2023-04-27T01:24:15;93897.48;;;1.96;69.91
64211;BME280;50528;48.514;14.394;2023-04-27T01:24:49;93897.68;;;1.97;69.94
64211;BME280;50528;48.514;14.394;2023-04-27T01:25:23;93902.23;;;1.98;69.93
64211;BME280;50528;48.514;14.394;2023-04-27T01:25:56;93904.08;;;1.98;70.03
64211;BME280;50528;48.514;14.394;2023-04-27T01:26:30;93903.23;;;1.98;70.08
64211;BME280;50528;48.514;14.394;2023-04-27T01:27:03;93902.40;;;1.99;70.02
64211;BME280;50528;48.514;14.394;2023-04-27T01:27:37;93902.20;;;1.98;70.00
64211;BME280;50528;48.514;14.394;2023-04-27T01:28:10;93904.75;;;2.00;70.00
64211;BME280;50528;48.514;14.394;2023-04-27T01:28:44;93907.09;;;2.00;69.98
64211;BME280;50528;48.514;14.394;2023-04-27T01:29:18;93906.71;;;2.00;69.95
64211;BME280;50528;48.514;14.394;2023-04-27T01:29:52;93905.69;;;1.99;69.91
64211;BME280;50528;48.514;14.394;2023-04-27T01:30:25;93905.00;;;1.99;69.89
64211;BME280;50528;48.514;14.394;2023-04-27T01:31:00;93908.30;;;2.01;69.94
64211;BME280;50528;48.514;14.394;2023-04-27T01:31:34;93904.19;;;2.00;69.87
64211;BME280;50528;48.514;14.394;2023-04-27T01:32:07;93907.09;;;2.00;69.91
64211;BME280;50528;48.514;14.394;2023-04-27T01:32:41;93907.66;;;2.00;69.93
64211;BME280;50528;48.514;14.394;2023-04-27T01:33:15;93907.09;;;2.00;69.91
64211;BME280;50528;48.514;14.394;2023-04-27T01:33:48;93907.45;;;2.00;69.92
64211;BME280;50528;48.514;14.394;2023-04-27T01:34:22;93905.89;;;2.00;69.98
64211;BME280;50528;48.514;14.394;2023-04-27T01:34:56;93901.20;;;2.01;69.98
64211;BME280;50528;48.514;14.394;2023-04-27T01:35:30;93901.65;;;2.01;70.02
64211;BME280;50528;48.514;14.394;2023-04-27T01:36:05;93902.89;;;2.01;70.09
64211;BME280;50528;48.514;14.394;2023-04-27T01:36:38;93904.92;;;2.01;69.98
64211;BME280;50528;48.514;14.394;2023-04-27T01:37:12;93904.00;;;2.02;70.10
64211;BME280;50528;48.514;14.394;2023-04-27T01:37:48;93899.48;;;2.02;70.01
64211;BME280;50528;48.514;14.394;2023-04-27T01:38:22;93903.05;;;2.02;70.09
64211;BME280;50528;48.514;14.394;2023-04-27T01:38:58;93906.45;;;2.03;70.21
64211;BME280;50528;48.514;14.394;2023-04-27T01:39:32;93904.77;;;2.04;70.19
64211;BME280;50528;48.514;14.394;2023-04-27T01:40:06;93905.58;;;2.04;70.28
64211;BME280;50528;48.514;14.394;2023-04-27T01:40:39;93902.79;;;2.06;70.32
64211;BME280;50528;48.514;14.394;2023-04-27T01:41:13;93900.98;;;2.06;70.26
64211;BME280;50528;48.514;14.394;2023-04-27T01:41:46;93897.67;;;2.05;70.28
64211;BME280;50528;48.514;14.394;2023-04-27T01:42:20;93897.92;;;2.08;70.22
64211;BME280;50528;48.514;14.394;2023-04-27T01:42:53;93900.55;;;2.09;70.28
64211;BME280;50528;48.514;14.394;2023-04-27T01:43:27;93897.86;;;2.10;70.37
64211;BME280;50528;48.514;14.394;2023-04-27T01:44:01;93899.41;;;2.10;70.38
64211;BME280;50528;48.514;14.394;2023-04-27T01:44:35;93898.02;;;2.10;70.40
64211;BME280;50528;48.514;14.394;2023-04-27T01:45:09;93896.51;;;2.11;70.41
64211;BME280;50528;48.514;14.394;2023-04-27T01:45:43;93895.48;;;2.11;70.33
64211;BME280;50528;48.514;14.394;2023-04-27T01:46:16;93897.52;;;2.11;70.39
64211;BME280;50528;48.514;14.394;2023-04-27T01:46:50;93898.21;;;2.12;70.50
64211;BME280;50528;48.514;14.394;2023-04-27T01:47:23;93904.64;;;2.13;70.42
64211;BME280;50528;48.514;14.394;2023-04-27T01:47:57;93901.80;;;2.14;70.48
64211;BME280;50528;48.514;14.394;2023-04-27T01:48:30;93900.66;;;2.15;70.48
64211;BME280;50528;48.514;14.394;2023-04-27T01:50:42;93904.12;;;2.11;70.39
64211;BME280;50528;48.514;14.394;2023-04-27T01:51:16;93903.83;;;2.06;70.33
64211;BME280;50528;48.514;14.394;2023-04-27T01:51:49;93906.42;;;2.06;70.35
64211;BME280;50528;48.514;14.394;2023-04-27T01:52:23;93907.29;;;2.07;70.39
64211;BME280;50528;48.514;14.394;2023-04-27T01:52:57;93909.73;;;2.09;70.50
64211;BME280;50528;48.514;14.394;2023-04-27T01:53:30;93911.34;;;2.10;70.45
64211;BME280;50528;48.514;14.394;2023-04-27T01:54:04;93912.14;;;2.10;70.45
64211;BME280;50528;48.514;14.394;2023-04-27T01:54:38;93912.90;;;2.11;70.49
64211;BME280;50528;48.514;14.394;2023-04-27T01:55:11;93911.15;;;2.11;70.60
64211;BME280;50528;48.514;14.394;2023-04-27T01:55:45;93909.47;;;2.12;70.62
64211;BME280;50528;48.514;14.394;2023-04-27T01:56:18;93910.26;;;2.13;70.64
64211;BME280;50528;48.514;14.394;2023-04-27T01:56:53;93909.98;;;2.12;70.67
64211;BME280;50528;48.514;14.394;2023-04-27T01:57:26;93912.70;;;2.14;70.66
64211;BME280;50528;48.514;14.394;2023-04-27T01:58:00;93910.00;;;2.15;70.69
64211;BME280;50528;48.514;14.394;2023-04-27T01:58:33;93910.77;;;2.15;70.69
64211;BME280;50528;48.514;14.394;2023-04-27T01:59:07;93909.05;;;2.17;70.81
64211;BME280;50528;48.514;14.394;2023-04-27T01:59:41;93914.69;;;2.17;70.79
64211;BME280;50528;48.514;14.394;2023-04-27T02:00:15;93911.48;;;2.16;70.69
64211;BME280;50528;48.514;14.394;2023-04-27T02:00:54;93914.80;;;2.17;70.71
64211;BME280;50528;48.514;14.394;2023-04-27T02:01:27;93909.94;;;2.17;70.63
64211;BME280;50528;48.514;14.394;2023-04-27T02:02:01;93917.06;;;2.15;70.58
64211;BME280;50528;48.514;14.394;2023-04-27T02:02:35;93918.48;;;2.13;70.54
64211;BME280;50528;48.514;14.394;2023-04-27T02:03:08;93921.63;;;2.13;70.64
64211;BME280;50528;48.514;14.394;2023-04-27T02:03:42;93918.55;;;2.13;70.61
64211;BME280;50528;48.514;14.394;2023-04-27T02:04:17;93919.27;;;2.14;70.72
64211;BME280;50528;48.514;14.394;2023-04-27T02:04:51;93924.59;;;2.14;70.74
64211;BME280;50528;48.514;14.394;2023-04-27T02:05:24;93930.00;;;2.18;70.78
64211;BME280;50528;48.514;14.394;2023-04-27T02:05:58;93929.48;;;2.18;70.79
64211;BME280;50528;48.514;14.394;2023-04-27T02:06:31;93927.13;;;2.17;70.82
64211;BME280;50528;48.514;14.394;2023-04-27T02:07:05;93922.48;;;2.13;70.83
64211;BME280;50528;48.514;14.394;2023-04-27T02:07:39;93928.30;;;2.15;70.81
64211;BME280;50528;48.514;14.394;2023-04-27T02:08:13;93928.70;;;2.14;70.83
64211;BME280;50528;48.514;14.394;2023-04-27T02:08:46;93925.63;;;2.14;70.89
64211;BME280;50528;48.514;14.394;2023-04-27T02:09:20;93927.98;;;2.15;70.90
64211;BME280;50528;48.514;14.394;2023-04-27T02:09:54;93921.92;;;2.15;70.98
64211;BME280;50528;48.514;14.394;2023-04-27T02:10:28;93922.09;;;2.16;71.01
64211;BME280;50528;48.514;14.394;2023-04-27T02:11:01;93918.23;;;2.17;71.02
64211;BME280;50528;48.514;14.394;2023-04-27T02:11:35;93922.45;;;2.17;71.11
64211;BME280;50528;48.514;14.394;2023-04-27T02:12:08;93919.66;;;2.19;71.14
64211;BME280;50528;48.514;14.394;2023-04-27T02:12:42;93920.81;;;2.18;71.21
64211;BME280;50528;48.514;14.394;2023-04-27T02:13:15;93921.52;;;2.21;71.25
64211;BME280;50528;48.514;14.394;2023-04-27T02:13:49;93921.36;;;2.22;71.27
64211;BME280;50528;48.514;14.394;2023-04-27T02:14:22;93923.00;;;2.23;71.34
64211;BME280;50528;48.514;14.394;2023-04-27T02:14:58;93918.70;;;2.24;71.30
64211;BME280;50528;48.514;14.394;2023-04-27T02:15:31;93920.80;;;2.24;71.45
64211;BME280;50528;48.514;14.394;2023-04-27T02:16:05;93926.42;;;2.24;71.38
64211;BME280;50528;48.514;14.394;2023-04-27T02:16:39;93926.52;;;2.25;71.39
64211;BME280;50528;48.514;14.394;2023-04-27T02:17:12;93926.11;;;2.25;71.55
64211;BME280;50528;48.514;14.394;2023-04-27T02:17:45;93926.19;;;2.25;71.50
64211;BME280;50528;48.514;14.394;2023-04-27T02:18:19;93913.66;;;2.12;71.45
64211;BME280;50528;48.514;14.394;2023-04-27T02:18:52;93928.20;;;2.16;71.51
64211;BME280;50528;48.514;14.394;2023-04-27T02:19:27;93926.79;;;2.12;71.51
64211;BME280;50528;48.514;14.394;2023-04-27T02:20:00;93926.88;;;2.08;71.51
64211;BME280;50528;48.514;14.394;2023-04-27T02:20:34;93925.63;;;2.07;71.69
64211;BME280;50528;48.514;14.394;2023-04-27T02:21:08;93926.20;;;2.09;71.69
64211;BME280;50528;48.514;14.394;2023-04-27T02:21:42;93927.05;;;2.09;71.75
64211;BME280;50528;48.514;14.394;2023-04-27T02:22:16;93928.64;;;2.10;71.77
64211;BME280;50528;48.514;14.394;2023-04-27T02:22:50;93928.66;;;2.11;71.88
64211;BME280;50528;48.514;14.394;2023-04-27T02:23:25;93928.89;;;2.12;71.92
64211;BME280;50528;48.514;14.394;2023-04-27T02:23:59;93930.89;;;2.11;71.79
64211;BME280;50528;48.514;14.394;2023-04-27T02:24:34;93931.48;;;2.12;71.91
64211;BME280;50528;48.514;14.394;2023-04-27T02:25:09;93929.69;;;2.12;71.80
64211;BME280;50528;48.514;14.394;2023-04-27T02:25:43;93931.29;;;2.13;71.87
64211;BME280;50528;48.514;14.394;2023-04-27T02:26:21;93930.17;;;2.14;71.88
64211;BME280;50528;48.514;14.394;2023-04-27T02:26:55;93928.91;;;2.16;71.90
64211;BME280;50528;48.514;14.394;2023-04-27T02:27:29;93928.01;;;2.16;71.85
64211;BME280;50528;48.514;14.394;2023-04-27T02:28:04;93929.96;;;2.17;71.81
64211;BME280;50528;48.514;14.394;2023-04-27T02:28:38;93932.80;;;2.18;71.84
64211;BME280;50528;48.514;14.394;2023-04-27T02:29:12;93930.63;;;2.18;71.87
64211;BME280;50528;48.514;14.394;2023-04-27T02:29:47;93931.91;;;2.19;71.89
64211;BME280;50528;48.514;14.394;2023-04-27T02:30:21;93930.08;;;2.20;71.84
64211;BME280;50528;48.514;14.394;2023-04-27T02:30:55;93930.77;;;2.21;71.86
64211;BME280;50528;48.514;14.394;2023-04-27T02:31:28;93929.39;;;2.23;71.84
64211;BME280;50528;48.514;14.394;2023-04-27T02:32:02;93928.59;;;2.24;71.92
64211;BME280;50528;48.514;14.394;2023-04-27T02:32:37;93930.45;;;2.25;71.92
64211;BME280;50528;48.514;14.394;2023-04-27T02:33:10;93926.36;;;2.26;71.98
64211;BME280;50528;48.514;14.394;2023-04-27T02:33:44;93927.96;;;2.27;71.87
64211;BME280;50528;48.514;14.394;2023-04-27T02:34:17;93926.90;;;2.29;71.92
64211;BME280;50528;48.514;14.394;2023-04-27T02:34:51;93923.48;;;2.28;71.95
64211;BME280;50528;48.514;14.394;2023-04-27T02:35:24;93923.81;;;2.30;71.91
64211;BME280;50528;48.514;14.394;2023-04-27T02:35:58;93924.25;;;2.30;71.88
64211;BME280;50528;48.514;14.394;2023-04-27T02:36:33;93921.21;;;2.30;71.96
64211;BME280;50528;48.514;14.394;2023-04-27T02:37:07;93922.19;;;2.32;71.91
64211;BME280;50528;48.514;14.394;2023-04-27T02:37:41;93922.16;;;2.33;71.88
64211;BME280;50528;48.514;14.394;2023-04-27T02:38:14;93924.65;;;2.34;71.88
64211;BME280;50528;48.514;14.394;2023-04-27T02:38:48;93923.53;;;2.34;71.85
64211;BME280;50528;48.514;14.394;2023-04-27T02:39:21;93925.84;;;2.35;71.82
64211;BME280;50528;48.514;14.394;2023-04-27T02:39:54;93926.84;;;2.37;71.77
64211;BME280;50528;48.514;14.394;2023-04-27T02:40:28;93923.21;;;2.38;71.83
64211;BME280;50528;48.514;14.394;2023-04-27T02:41:02;93925.86;;;2.39;71.85
64211;BME280;50528;48.514;14.394;2023-04-27T02:41:38;93927.21;;;2.40;71.86
64211;BME280;50528;48.514;14.394;2023-04-27T02:42:11;93927.21;;;2.40;71.82
64211;BME280;50528;48.514;14.394;2023-04-27T02:42:46;93926.33;;;2.40;71.85
64211;BME280;50528;48.514;14.394;2023-04-27T02:43:20;93929.21;;;2.40;71.78
64211;BME280;50528;48.514;14.394;2023-04-27T02:43:54;93927.23;;;2.41;71.83
64211;BME280;50528;48.514;14.394;2023-04-27T02:44:29;93930.92;;;2.41;71.81
64211;BME280;50528;48.514;14.394;2023-04-27T02:45:07;93925.73;;;2.41;71.80
64211;BME280;50528;48.514;14.394;2023-04-27T02:45:41;93927.98;;;2.42;71.80
64211;BME280;50528;48.514;14.394;2023-04-27T02:46:14;93930.01;;;2.42;71.82
64211;BME280;50528;48.514;14.394;2023-04-27T02:46:49;93928.25;;;2.42;71.83
64211;BME280;50528;48.514;14.394;2023-04-27T02:47:22;93927.61;;;2.43;71.79
64211;BME280;50528;48.514;14.394;2023-04-27T02:47:56;93926.94;;;2.43;71.87
64211;BME280;50528;48.514;14.394;2023-04-27T02:48:30;93926.78;;;2.44;71.86
64211;BME280;50528;48.514;14.394;2023-04-27T02:49:04;93930.21;;;2.44;71.86
64211;BME280;50528;48.514;14.394;2023-04-27T02:49:38;93924.36;;;2.46;71.89
64211;BME280;50528;48.514;14.394;2023-04-27T02:50:12;93927.79;;;2.46;71.77
64211;BME280;50528;48.514;14.394;2023-04-27T02:50:46;93930.52;;;2.46;71.82
64211;BME280;50528;48.514;14.394;2023-04-27T02:51:19;93926.13;;;2.47;71.74
64211;BME280;50528;48.514;14.394;2023-04-27T02:51:53;93926.11;;;2.45;71.81
64211;BME280;50528;48.514;14.394;2023-04-27T02:52:26;93926.40;;;2.47;71.85
64211;BME280;50528;48.514;14.394;2023-04-27T02:52:59;93928.52;;;2.47;71.92
64211;BME280;50528;48.514;14.394;2023-04-27T02:53:33;93926.39;;;2.47;71.81
64211;BME280;50528;48.514;14.394;2023-04-27T02:54:08;93924.84;;;2.47;71.83
64211;BME280;50528;48.514;14.394;2023-04-27T02:54:41;93925.42;;;2.48;71.84
64211;BME280;50528;48.514;14.394;2023-04-27T02:55:16;93923.17;;;2.47;71.82
64211;BME280;50528;48.514;14.394;2023-04-27T02:55:50;93922.00;;;2.48;71.82
64211;BME280;50528;48.514;14.394;2023-04-27T02:56:23;93923.75;;;2.47;71.85
64211;BME280;50528;48.514;14.394;2023-04-27T02:57:00;93921.44;;;2.48;71.87
64211;BME280;50528;48.514;14.394;2023-04-27T02:57:34;93923.92;;;2.48;71.82
64211;BME280;50528;48.514;14.394;2023-04-27T02:58:07;93924.11;;;2.47;71.85
64211;BME280;50528;48.514;14.394;2023-04-27T02:58:41;93923.16;;;2.48;71.84
64211;BME280;50528;48.514;14.394;2023-04-27T02:59:15;93922.56;;;2.49;71.79
64211;BME280;50528;48.514;14.394;2023-04-27T02:59:48;93920.96;;;2.48;71.78
64211;BME280;50528;48.514;14.394;2023-04-27T03:00:21;93922.54;;;2.51;71.81
64211;BME280;50528;48.514;14.394;2023-04-27T03:00:55;93924.64;;;2.50;71.78
64211;BME280;50528;48.514;14.394;2023-04-27T03:01:29;93920.20;;;2.48;71.78
64211;BME280;50528;48.514;14.394;2023-04-27T03:02:03;93922.33;;;2.51;71.79
64211;BME280;50528;48.514;14.394;2023-04-27T03:02:36;93919.60;;;2.49;71.70